Time;durP1;ratioP1;P1;durP2;ratioP2;P2;SDS_P1;SDS_P2;PMS_P1;PMS_P2;Temp;Humidity;BMP_temperature;BMP_pressure;BME280_temperature;BME280_humidity;BME280_pressure;Samples;Min_cycle;Max_cycle;Signal;HPM_P1;HPM_P2
2022/09/30 00:00:29;;;;;;;4.88;4.40;;;;;;;;;;5092138;28;20438;-66
2022/09/30 00:02:55;;;;;;;6.55;4.22;;;;;;;;;;5110304;28;20044;-66
2022/09/30 00:05:22;;;;;;;5.03;4.05;;;;;;;;;;5110613;28;20413;-66
2022/09/30 00:07:48;;;;;;;6.07;3.92;;;;;;;;;;5110649;28;20126;-66
2022/09/30 00:10:16;;;;;;;5.53;4.45;;;;;;;;;;5109795;28;20127;-66
2022/09/30 00:12:42;;;;;;;5.13;4.47;;;;;;;;;;5110667;28;20126;-66
2022/09/30 00:15:08;;;;;;;5.10;4.55;;;;;;;;;;5112582;28;20059;-66
2022/09/30 00:17:34;;;;;;;4.65;4.05;;;;;;;;;;5113741;28;20409;-66
2022/09/30 00:20:00;;;;;;;5.57;5.07;;;;;;;;;;5095650;28;20068;-66
2022/09/30 00:22:26;;;;;;;4.90;4.40;;;;;;;;;;5095823;28;20052;-66
2022/09/30 00:24:52;;;;;;;6.55;4.75;;;;;;;;;;5113736;28;20062;-66
2022/09/30 00:27:19;;;;;;;6.80;5.40;;;;;;;;;;5113969;28;20548;-66
2022/09/30 00:29:45;;;;;;;5.72;4.90;;;;;;;;;;5112563;28;20443;-66
2022/09/30 00:32:12;;;;;;;4.90;4.35;;;;;;;;;;5113665;28;20059;-66
2022/09/30 00:34:38;;;;;;;9.05;4.55;;;;;;;;;;5113827;28;20456;-66
2022/09/30 00:37:04;;;;;;;6.43;4.60;;;;;;;;;;5113994;28;20039;-66
2022/09/30 00:39:30;;;;;;;5.25;4.18;;;;;;;;;;5112716;28;20080;-66
2022/09/30 00:42:00;;;;;;;5.32;4.80;;;;;;;;;;5113540;28;20553;-66
2022/09/30 00:44:45;;;;;;;6.10;4.50;;;;;;;;;;5113755;28;20040;-66
2022/09/30 00:47:17;;;;;;;4.72;4.20;;;;;;;;;;5113302;28;20039;-66
2022/09/30 00:49:43;;;;;;;5.63;4.38;;;;;;;;;;5113485;28;20513;-66
2022/09/30 00:52:09;;;;;;;5.20;4.28;;;;;;;;;;5113513;28;20032;-66
2022/09/30 00:54:35;;;;;;;6.80;4.90;;;;;;;;;;5113248;28;20043;-66
2022/09/30 00:57:02;;;;;;;5.15;4.50;;;;;;;;;;5111940;28;20435;-66
2022/09/30 00:59:38;;;;;;;5.38;4.82;;;;;;;;;;5113447;28;20043;-66
2022/09/30 01:02:05;;;;;;;5.43;4.35;;;;;;;;;;5113110;28;20104;-66
2022/09/30 01:04:33;;;;;;;7.72;4.68;;;;;;;;;;5113262;28;20040;-66
2022/09/30 01:07:01;;;;;;;8.27;4.70;;;;;;;;;;5113375;28;20040;-66
2022/09/30 01:09:27;;;;;;;5.32;4.50;;;;;;;;;;5112589;28;20122;-65
2022/09/30 01:11:53;;;;;;;5.72;4.35;;;;;;;;;;5113290;28;20063;-66
2022/09/30 01:14:23;;;;;;;5.88;4.28;;;;;;;;;;5113039;28;20050;-66
2022/09/30 01:16:55;;;;;;;4.78;4.30;;;;;;;;;;5112727;28;20154;-66
2022/09/30 01:19:40;;;;;;;8.00;4.28;;;;;;;;;;5112686;28;20402;-66
2022/09/30 01:22:13;;;;;;;4.93;4.47;;;;;;;;;;5094674;28;20040;-65
2022/09/30 01:24:39;;;;;;;;;;;;;;;;;;5113088;28;20044;-65
2022/09/30 01:27:12;;;;;;;5.80;4.35;;;;;;;;;;5111665;28;19920;-66
2022/09/30 01:29:55;;;;;;;6.32;4.20;;;;;;;;;;5112473;28;20098;-66
2022/09/30 01:32:27;;;;;;;4.97;4.20;;;;;;;;;;5112065;28;20148;-66
2022/09/30 01:34:58;;;;;;;6.45;4.20;;;;;;;;;;5112870;28;20071;-66
2022/09/30 01:37:45;;;;;;;6.07;4.38;;;;;;;;;;5112680;28;20047;-66
2022/09/30 01:40:21;;;;;;;3.20;2.90;;;;;;;;;;5111871;28;20039;-66
2022/09/30 01:43:01;;;;;;;4.38;3.15;;;;;;;;;;5112532;28;20053;-66
2022/09/30 01:45:34;;;;;;;4.32;3.47;;;;;;;;;;5112326;28;20048;-66
2022/09/30 01:48:07;;;;;;;4.30;3.90;;;;;;;;;;5111984;28;20039;-66
2022/09/30 01:50:53;;;;;;;4.82;3.42;;;;;;;;;;5112219;28;20057;-66
2022/09/30 01:53:33;;;;;;;4.88;4.05;;;;;;;;;;5112059;28;20051;-66
2022/09/30 01:56:11;;;;;;;5.03;4.10;;;;;;;;;;5111871;28;20617;-66
2022/09/30 01:58:55;;;;;;;6.13;3.60;;;;;;;;;;5112165;28;20441;-66
2022/09/30 02:01:30;;;;;;;5.20;3.72;;;;;;;;;;5111803;28;20086;-66
2022/09/30 02:04:00;;;;;;;4.20;3.33;;;;;;;;;;5112041;28;20528;-66
2022/09/30 02:06:30;;;;;;;4.80;3.90;;;;;;;;;;5111843;28;20046;-66
2022/09/30 02:08:59;;;;;;;3.80;3.40;;;;;;;;;;5111761;28;20104;-66
2022/09/30 02:11:27;;;;;;;5.18;3.80;;;;;;;;;;5111736;28;20060;-66
2022/09/30 02:14:03;;;;;;;5.75;3.65;;;;;;;;;;5111836;28;20054;-66
2022/09/30 02:16:40;;;;;;;4.72;3.95;;;;;;;;;;5111307;28;20085;-66
2022/09/30 02:19:11;;;;;;;4.25;3.65;;;;;;;;;;5112006;28;20039;-66
2022/09/30 02:21:39;;;;;;;5.13;3.75;;;;;;;;;;5111875;28;20032;-66
2022/09/30 02:24:07;;;;;;;5.85;3.97;;;;;;;;;;5111521;28;20043;-66
2022/09/30 02:26:39;;;;;;;6.30;3.53;;;;;;;;;;5111302;28;20040;-66
2022/09/30 02:29:16;;;;;;;4.00;3.17;;;;;;;;;;5111772;28;20473;-66
2022/09/30 02:31:44;;;;;;;4.20;3.75;;;;;;;;;;5111148;28;20128;-66
2022/09/30 02:34:14;;;;;;;5.10;3.50;;;;;;;;;;5111569;28;20027;-66
2022/09/30 02:36:46;;;;;;;3.45;3.15;;;;;;;;;;5111472;28;20392;-66
2022/09/30 02:39:25;;;;;;;4.05;3.30;;;;;;;;;;5111083;28;20028;-66
2022/09/30 02:41:53;;;;;;;4.18;3.35;;;;;;;;;;5111608;28;20043;-66
2022/09/30 02:44:21;;;;;;;6.00;4.20;;;;;;;;;;5111490;28;20039;-66
2022/09/30 02:46:47;;;;;;;5.07;3.92;;;;;;;;;;5111050;28;20039;-66
2022/09/30 02:49:28;;;;;;;5.32;3.83;;;;;;;;;;5109724;28;20432;-66
2022/09/30 02:52:00;;;;;;;10.43;3.83;;;;;;;;;;5111466;28;20043;-66
2022/09/30 02:54:46;;;;;;;7.35;4.22;;;;;;;;;;5110709;28;20093;-66
2022/09/30 02:57:32;;;;;;;9.43;4.22;;;;;;;;;;5111015;28;20051;-66
2022/09/30 02:59:59;;;;;;;7.40;4.47;;;;;;;;;;5096884;28;20044;-66
2022/09/30 03:02:25;;;;;;;6.30;4.68;;;;;;;;;;5109583;28;20044;-66
2022/09/30 03:04:51;;;;;;;7.70;4.13;;;;;;;;;;5110948;28;20051;-65
2022/09/30 03:07:17;;;;;;;8.40;4.50;;;;;;;;;;5111029;28;20115;-66
2022/09/30 03:09:43;;;;;;;11.77;4.43;;;;;;;;;;5110512;28;20063;-66
2022/09/30 03:12:24;;;;;;;8.07;5.03;;;;;;;;;;5111107;28;20038;-66
2022/09/30 03:14:57;;;;;;;5.53;4.65;;;;;;;;;;5111136;28;20108;-66
2022/09/30 03:17:32;;;;;;;5.30;4.80;;;;;;;;;;5110740;28;20036;-66
2022/09/30 03:20:09;;;;;;;8.52;3.88;;;;;;;;;;5110941;28;20077;-66
2022/09/30 03:22:35;;;;;;;5.43;4.28;;;;;;;;;;5110504;28;20079;-66
2022/09/30 03:25:20;;;;;;;5.93;4.60;;;;;;;;;;5110806;28;20055;-66
2022/09/30 03:27:46;;;;;;;12.63;4.95;;;;;;;;;;5112918;28;20041;-66
2022/09/30 03:30:16;;;;;;;6.25;4.15;;;;;;;;;;5112293;28;20188;-66
2022/09/30 03:33:01;;;;;;;6.78;4.30;;;;;;;;;;5131502;28;20039;-66
2022/09/30 03:35:42;;;;;;;5.68;4.35;;;;;;;;;;5131596;28;20087;-66
2022/09/30 03:38:17;;;;;;;5.20;4.70;;;;;;;;;;5131009;28;20043;-66
2022/09/30 03:40:49;;;;;;;5.80;3.97;;;;;;;;;;5131187;28;20416;-66
2022/09/30 03:43:18;;;;;;;5.43;4.15;;;;;;;;;;5131214;28;20482;-66
2022/09/30 03:45:48;;;;;;;6.43;4.90;;;;;;;;;;5112251;28;20050;-66
2022/09/30 03:48:15;;;;;;;5.55;4.63;;;;;;;;;;5130920;27;20035;-66
2022/09/30 03:50:41;;;;;;;4.88;4.38;;;;;;;;;;5134068;27;20040;-66
2022/09/30 03:53:11;;;;;;;4.90;4.40;;;;;;;;;;5134931;27;20117;-66
2022/09/30 03:55:48;;;;;;;5.80;4.50;;;;;;;;;;5135079;27;20035;-66
2022/09/30 03:58:15;;;;;;;5.32;4.10;;;;;;;;;;5135037;27;20065;-66
2022/09/30 04:00:45;;;;;;;6.15;4.88;;;;;;;;;;5134745;27;20133;-66
2022/09/30 04:03:11;;;;;;;5.40;4.18;;;;;;;;;;5134803;27;20126;-66
2022/09/30 04:05:37;;;;;;;7.35;4.28;;;;;;;;;;5117251;27;20119;-66
2022/09/30 04:08:03;;;;;;;6.38;4.40;;;;;;;;;;5113955;28;20035;-66
2022/09/30 04:10:29;;;;;;;5.68;4.72;;;;;;;;;;5114079;28;20087;-66
2022/09/30 04:12:56;;;;;;;7.60;4.88;;;;;;;;;;5114074;28;20079;-66
2022/09/30 04:15:22;;;;;;;6.18;5.25;;;;;;;;;;5113610;28;20079;-66
2022/09/30 04:17:48;;;;;;;5.03;4.35;;;;;;;;;;5113860;28;20043;-66
2022/09/30 04:20:16;;;;;;;5.45;4.53;;;;;;;;;;5096110;28;20035;-66
2022/09/30 04:22:42;;;;;;;6.72;5.00;;;;;;;;;;5113917;28;20040;-66
2022/09/30 04:25:08;;;;;;;5.15;4.65;;;;;;;;;;5115239;27;20462;-66
2022/09/30 04:27:34;;;;;;;5.35;4.85;;;;;;;;;;5134528;27;20636;-66
2022/09/30 04:30:00;;;;;;;6.35;4.10;;;;;;;;;;5134165;27;20167;-66
2022/09/30 04:32:27;;;;;;;6.72;5.10;;;;;;;;;;5115822;27;20151;-66
2022/09/30 04:34:53;;;;;;;5.85;4.68;;;;;;;;;;5116017;27;20043;-66
2022/09/30 04:37:20;;;;;;;5.47;4.30;;;;;;;;;;5134192;27;20051;-66
2022/09/30 04:39:46;;;;;;;3.67;2.75;;;;;;;;;;5134415;27;20047;-66
2022/09/30 04:42:12;;;;;;;3.00;2.70;;;;;;;;;;5134249;27;20046;-66
2022/09/30 04:44:38;;;;;;;3.70;2.70;;;;;;;;;;5133796;27;20035;-66
2022/09/30 04:47:05;;;;;;;3.58;3.10;;;;;;;;;;5134115;27;20042;-66
2022/09/30 04:49:31;;;;;;;3.53;2.83;;;;;;;;;;5134015;27;20035;-66
2022/09/30 04:51:57;;;;;;;4.18;3.15;;;;;;;;;;5133824;27;20156;-66
2022/09/30 04:54:23;;;;;;;5.10;3.22;;;;;;;;;;5134163;27;20035;-65
2022/09/30 04:56:50;;;;;;;4.40;3.70;;;;;;;;;;5115697;27;20046;-65
2022/09/30 04:59:16;;;;;;;5.50;3.63;;;;;;;;;;5133195;27;20050;-66
2022/09/30 05:01:43;;;;;;;5.07;3.50;;;;;;;;;;5133335;27;20032;-66
2022/09/30 05:04:11;;;;;;;4.35;3.95;;;;;;;;;;5129018;27;20039;-66
2022/09/30 05:06:39;;;;;;;4.97;3.60;;;;;;;;;;5094720;28;20668;-66
2022/09/30 05:09:05;;;;;;;4.30;3.60;;;;;;;;;;5113258;28;20432;-66
2022/09/30 05:11:31;;;;;;;5.10;4.07;;;;;;;;;;5112892;28;20390;-66
2022/09/30 05:13:57;;;;;;;5.97;4.38;;;;;;;;;;5112856;28;20545;-66
2022/09/30 05:16:26;;;;;;;7.75;4.82;;;;;;;;;;5113259;28;20491;-66
2022/09/30 05:18:53;;;;;;;5.68;4.20;;;;;;;;;;5113014;28;20054;-66
2022/09/30 05:21:19;;;;;;;4.80;4.22;;;;;;;;;;5112762;28;20048;-66
2022/09/30 05:23:45;;;;;;;7.10;4.50;;;;;;;;;;5113183;28;20047;-66
2022/09/30 05:26:11;;;;;;;5.97;4.82;;;;;;;;;;5122774;27;20039;-66
2022/09/30 05:28:37;;;;;;;6.60;4.60;;;;;;;;;;5133035;27;20126;-66
2022/09/30 05:31:05;;;;;;;7.68;4.97;;;;;;;;;;5133360;27;20063;-66
2022/09/30 05:33:32;;;;;;;6.97;5.28;;;;;;;;;;5114729;27;20065;-66
2022/09/30 05:36:02;;;;;;;6.03;4.60;;;;;;;;;;5133192;27;20039;-66
2022/09/30 05:38:28;;;;;;;11.13;5.75;;;;;;;;;;5133116;27;20042;-66
2022/09/30 05:40:54;;;;;;;9.40;6.22;;;;;;;;;;5114775;27;20082;-66
2022/09/30 05:43:20;;;;;;;9.48;6.78;;;;;;;;;;5132370;27;20043;-66
2022/09/30 05:45:53;;;;;;;8.40;5.57;;;;;;;;;;5133110;27;20041;-66
2022/09/30 05:48:19;;;;;;;8.20;5.78;;;;;;;;;;5132873;27;20039;-66
2022/09/30 05:50:50;;;;;;;8.73;6.00;;;;;;;;;;5132700;27;20078;-66
2022/09/30 05:53:17;;;;;;;7.82;6.03;;;;;;;;;;5133077;27;20046;-66
2022/09/30 05:55:46;;;;;;;8.40;6.30;;;;;;;;;;5132937;27;20066;-66
2022/09/30 05:58:13;;;;;;;11.75;6.75;;;;;;;;;;5132363;27;20042;-66
2022/09/30 06:00:40;;;;;;;21.15;7.60;;;;;;;;;;5132768;27;20046;-66
2022/09/30 06:03:07;;;;;;;25.65;8.32;;;;;;;;;;5132626;27;20405;-66
2022/09/30 06:05:33;;;;;;;19.25;6.47;;;;;;;;;;5115535;27;20040;-66
2022/09/30 06:07:59;;;;;;;8.38;5.70;;;;;;;;;;5112000;28;20117;-66
2022/09/30 06:10:26;;;;;;;10.93;6.72;;;;;;;;;;5111816;28;20057;-66
2022/09/30 06:12:52;;;;;;;12.30;7.50;;;;;;;;;;5110937;28;20043;-66
2022/09/30 06:15:18;;;;;;;11.27;7.80;;;;;;;;;;5112023;28;20039;-66
2022/09/30 06:17:45;;;;;;;7.93;7.22;;;;;;;;;;5086243;27;20035;-66
2022/09/30 06:20:12;;;;;;;10.27;6.65;;;;;;;;;;5113794;27;20054;-65
2022/09/30 06:22:38;;;;;;;7.38;6.07;;;;;;;;;;5094217;28;20051;-61
2022/09/30 06:25:05;;;;;;;7.35;5.90;;;;;;;;;;5113436;27;20674;-61
2022/09/30 06:27:33;;;;;;;7.88;6.53;;;;;;;;;;5110625;27;20043;-63
2022/09/30 06:29:59;;;;;;;8.55;5.93;;;;;;;;;;5119486;27;20036;-64
2022/09/30 06:32:25;;;;;;;7.30;5.75;;;;;;;;;;5101510;27;20057;-62
2022/09/30 06:34:54;;;;;;;8.32;6.40;;;;;;;;;;5110907;28;20047;-63
2022/09/30 06:37:21;;;;;;;8.52;6.72;;;;;;;;;;5107151;27;20049;-65
2022/09/30 06:39:47;;;;;;;11.02;7.20;;;;;;;;;;5110244;28;20048;-59
2022/09/30 06:42:13;;;;;;;9.30;7.90;;;;;;;;;;5110168;28;20454;-59
2022/09/30 06:44:39;;;;;;;11.05;8.27;;;;;;;;;;5125845;27;20131;-61
2022/09/30 06:47:06;;;;;;;12.77;9.52;;;;;;;;;;5100306;28;20570;-58
2022/09/30 06:49:33;;;;;;;14.30;9.73;;;;;;;;;;5109016;27;20040;-61
2022/09/30 06:52:00;;;;;;;22.10;13.15;;;;;;;;;;5109186;27;20071;-59
2022/09/30 06:54:29;;;;;;;40.30;15.77;;;;;;;;;;5109788;28;20047;-60
2022/09/30 06:56:58;;;;;;;73.63;18.83;;;;;;;;;;5110103;27;20040;-65
2022/09/30 06:59:25;;;;;;;80.50;18.67;;;;;;;;;;5109199;28;20057;-65
2022/09/30 07:01:51;;;;;;;48.67;19.13;;;;;;;;;;5109802;28;20108;-63
2022/09/30 07:04:17;;;;;;;33.28;17.75;;;;;;;;;;5111955;27;20043;-64
2022/09/30 07:06:43;;;;;;;30.75;17.85;;;;;;;;;;5117627;28;20403;-63
2022/09/30 07:09:10;;;;;;;38.15;20.10;;;;;;;;;;5124549;28;20040;-63
2022/09/30 07:11:37;;;;;;;37.17;19.45;;;;;;;;;;5092051;28;20369;-64
2022/09/30 07:14:03;;;;;;;27.10;17.23;;;;;;;;;;5109261;28;20425;-65
2022/09/30 07:16:39;;;;;;;31.33;17.75;;;;;;;;;;5110319;28;20123;-64
2022/09/30 07:19:09;;;;;;;24.00;16.35;;;;;;;;;;5109047;28;20466;-65
2022/09/30 07:21:36;;;;;;;24.73;16.23;;;;;;;;;;5109028;28;20089;-64
2022/09/30 07:24:02;;;;;;;27.88;16.10;;;;;;;;;;5111938;28;20043;-64
2022/09/30 07:26:29;;;;;;;27.83;16.98;;;;;;;;;;5115247;27;20051;-65
2022/09/30 07:28:56;;;;;;;27.35;15.85;;;;;;;;;;5124889;27;20078;-65
2022/09/30 07:31:23;;;;;;;32.30;16.48;;;;;;;;;;5095704;28;20081;-66
2022/09/30 07:33:52;;;;;;;28.92;16.55;;;;;;;;;;5113842;28;20461;-66
2022/09/30 07:36:26;;;;;;;29.67;16.60;;;;;;;;;;5095077;27;20534;-66
2022/09/30 07:38:52;;;;;;;36.42;18.00;;;;;;;;;;5112333;28;20047;-66
2022/09/30 07:41:23;;;;;;;32.08;17.20;;;;;;;;;;5113816;28;20040;-65
2022/09/30 07:43:49;;;;;;;106.30;18.15;;;;;;;;;;5112514;28;20055;-64
2022/09/30 07:46:21;;;;;;;29.85;16.63;;;;;;;;;;5113278;28;20039;-64
2022/09/30 07:48:49;;;;;;;32.13;17.40;;;;;;;;;;5113085;28;20359;-65
2022/09/30 07:51:17;;;;;;;48.85;19.23;;;;;;;;;;5094301;28;20289;-64
2022/09/30 07:53:45;;;;;;;81.85;20.65;;;;;;;;;;5110916;28;20047;-65
2022/09/30 07:56:11;;;;;;;78.80;21.30;;;;;;;;;;5113133;28;20092;-66
2022/09/30 07:58:38;;;;;;;39.85;19.63;;;;;;;;;;5112039;28;20043;-64
2022/09/30 08:01:08;;;;;;;44.58;21.77;;;;;;;;;;5113505;28;20077;-64
2022/09/30 08:03:34;;;;;;;44.17;19.45;;;;;;;;;;5113107;28;20063;-63
2022/09/30 08:06:04;;;;;;;43.78;20.35;;;;;;;;;;5122174;27;20059;-63
2022/09/30 08:08:30;;;;;;;51.63;21.60;;;;;;;;;;5112599;28;20039;-63
2022/09/30 08:11:03;;;;;;;42.20;21.20;;;;;;;;;;5112673;28;20090;-65
2022/09/30 08:13:29;;;;;;;;;;;;;;;;;;5113168;28;20145;-64
2022/09/30 08:15:55;;;;;;;39.88;20.05;;;;;;;;;;5112893;28;20373;-65
2022/09/30 08:18:21;;;;;;;39.88;20.88;;;;;;;;;;5112160;28;20722;-65
2022/09/30 08:20:47;;;;;;;41.58;22.05;;;;;;;;;;5112547;28;20039;-64
2022/09/30 08:23:13;;;;;;;36.58;20.45;;;;;;;;;;5112831;28;20032;-65
2022/09/30 08:25:39;;;;;;;42.05;21.83;;;;;;;;;;5118532;27;20709;-64
2022/09/30 08:28:05;;;;;;;40.30;20.75;;;;;;;;;;5113081;27;20047;-63
2022/09/30 08:30:33;;;;;;;37.10;21.27;;;;;;;;;;5117685;27;20128;-64
2022/09/30 08:32:59;;;;;;;36.38;20.52;;;;;;;;;;5112733;28;20044;-66
2022/09/30 08:35:26;;;;;;;27.85;17.73;;;;;;;;;;5111954;28;20043;-66
2022/09/30 08:37:53;;;;;;;33.25;18.60;;;;;;;;;;5112215;28;20435;-64
2022/09/30 08:40:30;;;;;;;30.67;17.00;;;;;;;;;;5112664;28;20079;-64
2022/09/30 08:43:02;;;;;;;27.70;16.50;;;;;;;;;;5115079;27;20057;-63
2022/09/30 08:45:35;;;;;;;27.88;16.77;;;;;;;;;;5129056;27;20032;-64
2022/09/30 08:48:01;;;;;;;23.88;15.05;;;;;;;;;;5112488;27;20642;-64
2022/09/30 08:50:28;;;;;;;22.13;14.20;;;;;;;;;;5113041;27;20039;-64
2022/09/30 08:52:57;;;;;;;20.73;12.20;;;;;;;;;;5112939;28;20036;-67
2022/09/30 08:55:25;;;;;;;15.80;11.30;;;;;;;;;;5112373;28;20050;-65
2022/09/30 08:57:52;;;;;;;16.70;11.63;;;;;;;;;;5111894;27;20397;-64
2022/09/30 09:00:18;;;;;;;15.07;10.57;;;;;;;;;;5112400;27;20084;-65
2022/09/30 09:02:53;;;;;;;15.35;11.40;;;;;;;;;;5112443;28;20038;-66
2022/09/30 09:05:35;;;;;;;15.15;10.63;;;;;;;;;;5106257;28;20079;-64
2022/09/30 09:08:07;;;;;;;13.75;9.80;;;;;;;;;;5111605;28;20039;-63
2022/09/30 09:10:33;;;;;;;;;;;;;;;;;;5111552;28;20131;-64
2022/09/30 09:13:11;;;;;;;11.40;8.45;;;;;;;;;;5112181;28;20049;-63
2022/09/30 09:16:01;;;;;;;12.38;8.65;;;;;;;;;;5108338;28;20039;-63
2022/09/30 09:18:27;;;;;;;8.95;7.30;;;;;;;;;;5111050;28;20055;-66
2022/09/30 09:20:58;;;;;;;11.38;7.20;;;;;;;;;;5094002;28;20035;-65
2022/09/30 09:23:25;;;;;;;9.48;7.03;;;;;;;;;;5125979;27;20051;-65
2022/09/30 09:25:54;;;;;;;9.95;6.82;;;;;;;;;;5125304;27;20405;-64
2022/09/30 09:28:27;;;;;;;8.27;6.57;;;;;;;;;;5126630;27;20409;-64
2022/09/30 09:30:56;;;;;;;7.30;5.90;;;;;;;;;;5116796;27;20091;-64
2022/09/30 09:33:26;;;;;;;7.00;5.78;;;;;;;;;;5126327;27;20165;-64
2022/09/30 09:36:01;;;;;;;7.25;5.90;;;;;;;;;;5111245;27;20401;-64
2022/09/30 09:38:34;;;;;;;6.75;6.05;;;;;;;;;;5120932;27;20036;-64
2022/09/30 09:41:19;;;;;;;7.88;5.90;;;;;;;;;;5111471;28;20051;-63
2022/09/30 09:43:48;;;;;;;5.80;5.20;;;;;;;;;;5105371;28;20044;-65
2022/09/30 09:46:14;;;;;;;7.18;4.70;;;;;;;;;;5111156;28;20047;-66
2022/09/30 09:48:40;;;;;;;6.43;5.13;;;;;;;;;;5091883;28;20093;-66
2022/09/30 09:51:14;;;;;;;4.63;3.92;;;;;;;;;;5117522;27;20557;-66
2022/09/30 09:53:52;;;;;;;4.28;3.83;;;;;;;;;;5075811;28;20111;-63
2022/09/30 09:56:22;;;;;;;7.00;4.28;;;;;;;;;;5111223;28;20112;-63
2022/09/30 09:59:04;;;;;;;4.47;3.60;;;;;;;;;;5110758;28;20112;-64
2022/09/30 10:01:33;;;;;;;;;;;;;;;;;;5111437;28;20040;-66
2022/09/30 10:04:10;;;;;;;4.72;3.75;;;;;;;;;;5113616;27;20469;-66
2022/09/30 10:07:05;;;;;;;6.20;4.35;;;;;;;;;;5116339;27;20389;-64
2022/09/30 10:09:35;;;;;;;6.80;4.80;;;;;;;;;;5092287;27;20047;-64
2022/09/30 10:12:05;;;;;;;8.57;4.10;;;;;;;;;;5115496;27;20079;-63
2022/09/30 10:14:36;;;;;;;6.72;4.68;;;;;;;;;;5120532;27;20039;-63
2022/09/30 10:17:03;;;;;;;5.55;4.72;;;;;;;;;;5110565;28;20041;-62
2022/09/30 10:19:33;;;;;;;7.75;5.30;;;;;;;;;;5110138;28;20032;-64
2022/09/30 10:22:08;;;;;;;6.20;5.28;;;;;;;;;;5110168;28;20096;-63
2022/09/30 10:24:35;;;;;;;8.93;6.25;;;;;;;;;;5110399;28;20039;-63
2022/09/30 10:27:01;;;;;;;5.43;4.80;;;;;;;;;;5110391;27;20119;-64
2022/09/30 10:29:46;;;;;;;9.38;5.88;;;;;;;;;;5111135;28;20074;-63
2022/09/30 10:32:13;;;;;;;10.23;5.35;;;;;;;;;;5110151;28;20035;-63
2022/09/30 10:34:40;;;;;;;7.95;6.55;;;;;;;;;;5110560;28;20044;-63
2022/09/30 10:37:09;;;;;;;8.77;6.35;;;;;;;;;;5110884;28;20452;-63
2022/09/30 10:39:36;;;;;;;8.27;5.57;;;;;;;;;;5110333;28;20164;-63
2022/09/30 10:42:06;;;;;;;8.88;5.30;;;;;;;;;;5110774;28;20444;-63
2022/09/30 10:44:34;;;;;;;6.57;5.80;;;;;;;;;;5110831;28;20430;-63
2022/09/30 10:47:01;;;;;;;7.45;5.68;;;;;;;;;;5110152;28;20056;-63
2022/09/30 10:49:30;;;;;;;8.95;5.55;;;;;;;;;;5110786;28;20127;-63
2022/09/30 10:51:58;;;;;;;5.40;4.72;;;;;;;;;;5110734;28;20040;-63
2022/09/30 10:54:33;;;;;;;6.45;4.95;;;;;;;;;;5091600;28;20044;-63
2022/09/30 10:57:02;;;;;;;6.15;4.13;;;;;;;;;;5110837;28;20032;-63
2022/09/30 10:59:32;;;;;;;4.65;3.42;;;;;;;;;;5110201;28;20050;-63
2022/09/30 11:02:14;;;;;;;3.70;2.92;;;;;;;;;;5109871;28;20032;-63
2022/09/30 11:04:45;;;;;;;5.10;2.83;;;;;;;;;;5110578;28;20035;-63
2022/09/30 11:07:15;;;;;;;4.53;2.78;;;;;;;;;;5110336;28;20492;-63
2022/09/30 11:09:46;;;;;;;4.10;2.75;;;;;;;;;;5107938;28;20046;-63
2022/09/30 11:12:33;;;;;;;3.55;3.10;;;;;;;;;;5087074;28;20040;-63
2022/09/30 11:15:15;;;;;;;3.90;2.97;;;;;;;;;;5087184;28;20086;-64
2022/09/30 11:18:02;;;;;;;3.40;3.10;;;;;;;;;;5091386;28;20123;-65
2022/09/30 11:20:31;;;;;;;3.25;2.83;;;;;;;;;;5110631;28;20050;-65
2022/09/30 11:23:03;;;;;;;3.95;2.75;;;;;;;;;;5097955;28;20032;-65
2022/09/30 11:25:38;;;;;;;5.30;2.97;;;;;;;;;;5089870;28;20064;-65
2022/09/30 11:28:26;;;;;;;6.03;3.40;;;;;;;;;;5096255;28;20097;-65
2022/09/30 11:30:59;;;;;;;4.00;3.60;;;;;;;;;;5089813;28;20066;-63
2022/09/30 11:33:24;;;;;;;;;;;;;;;;;;5090746;28;20036;-66
2022/09/30 11:35:59;;;;;;;5.38;3.50;;;;;;;;;;5089793;28;20309;-64
2022/09/30 11:38:28;;;;;;;5.00;3.15;;;;;;;;;;5096818;28;20047;-65
2022/09/30 11:41:00;;;;;;;5.57;3.00;;;;;;;;;;5069878;28;20124;-65
2022/09/30 11:43:27;;;;;;;3.03;2.72;;;;;;;;;;5074326;28;20047;-64
2022/09/30 11:46:22;;;;;;;4.38;3.10;;;;;;;;;;5089444;28;20109;-63
2022/09/30 11:48:54;;;;;;;4.75;3.45;;;;;;;;;;5070953;28;20044;-64
2022/09/30 11:51:23;;;;;;;4.80;3.20;;;;;;;;;;4183204;28;10000489;-63
2022/09/30 11:53:55;;;;;;;4.70;3.00;;;;;;;;;;5048708;28;20891;-62
2022/09/30 11:56:21;;;;;;;5.82;3.22;;;;;;;;;;5049693;28;20068;-63
2022/09/30 11:58:52;;;;;;;5.90;3.47;;;;;;;;;;5049523;28;20453;-65
2022/09/30 12:01:37;;;;;;;9.03;3.70;;;;;;;;;;5049081;28;20053;-63
2022/09/30 12:04:21;;;;;;;7.47;3.80;;;;;;;;;;5048720;28;20538;-63
2022/09/30 12:06:58;;;;;;;6.20;4.05;;;;;;;;;;5048819;28;20129;-64
2022/09/30 12:09:40;;;;;;;4.05;3.17;;;;;;;;;;5049108;28;20039;-64
2022/09/30 12:12:08;;;;;;;5.03;3.55;;;;;;;;;;5052867;28;20076;-64
2022/09/30 12:14:43;;;;;;;5.35;4.15;;;;;;;;;;5053242;28;20047;-64
2022/09/30 12:17:20;;;;;;;4.82;4.13;;;;;;;;;;5032990;28;20095;-65
2022/09/30 12:19:52;;;;;;;7.65;4.53;;;;;;;;;;5049670;28;20052;-63
2022/09/30 12:22:21;;;;;;;7.32;5.03;;;;;;;;;;5058488;28;20037;-64
2022/09/30 12:24:47;;;;;;;8.70;4.97;;;;;;;;;;5052513;28;20041;-64
2022/09/30 12:27:22;;;;;;;7.68;5.60;;;;;;;;;;5052484;28;20037;-63
2022/09/30 12:30:19;;;;;;;6.00;5.10;;;;;;;;;;5052594;28;20040;-63
2022/09/30 12:32:55;;;;;;;5.57;4.60;;;;;;;;;;5057286;28;20549;-63
2022/09/30 12:35:29;;;;;;;6.03;5.38;;;;;;;;;;5059458;28;20640;-64
2022/09/30 12:38:07;;;;;;;6.75;5.72;;;;;;;;;;5052197;28;20379;-64
2022/09/30 12:40:42;;;;;;;7.30;6.55;;;;;;;;;;5052144;28;20349;-64
2022/09/30 12:43:21;;;;;;;8.80;6.82;;;;;;;;;;5034826;28;20045;-63
2022/09/30 12:45:53;;;;;;;9.15;7.20;;;;;;;;;;5052053;28;20044;-63
2022/09/30 12:48:20;;;;;;;7.78;5.88;;;;;;;;;;5052306;28;20082;-64
2022/09/30 12:50:48;;;;;;;9.32;5.47;;;;;;;;;;5059807;28;20048;-64
2022/09/30 12:53:20;;;;;;;7.45;5.88;;;;;;;;;;5051993;28;20044;-64
2022/09/30 12:55:46;;;;;;;7.95;5.93;;;;;;;;;;5052309;28;20522;-64
2022/09/30 12:58:19;;;;;;;9.35;6.68;;;;;;;;;;5052219;28;20646;-64
2022/09/30 13:00:59;;;;;;;9.35;7.03;;;;;;;;;;5051646;28;20072;-64
2022/09/30 13:03:25;;;;;;;8.35;5.97;;;;;;;;;;5052151;28;20048;-63
2022/09/30 13:06:05;;;;;;;8.40;6.45;;;;;;;;;;5052111;28;20049;-64
2022/09/30 13:08:42;;;;;;;6.97;5.97;;;;;;;;;;5057327;28;20052;-63
2022/09/30 13:11:40;;;;;;;8.20;6.28;;;;;;;;;;5059051;28;20600;-65
2022/09/30 13:14:25;;;;;;;7.80;6.35;;;;;;;;;;4992731;28;20032;-63
2022/09/30 13:16:57;;;;;;;10.07;7.38;;;;;;;;;;5054856;28;20068;-62
2022/09/30 13:19:32;;;;;;;7.90;6.88;;;;;;;;;;5059079;28;20076;-62
2022/09/30 13:22:17;;;;;;;7.05;6.07;;;;;;;;;;5051128;28;20171;-67
2022/09/30 13:25:03;;;;;;;7.15;6.15;;;;;;;;;;5051794;28;20036;-67
2022/09/30 13:27:32;;;;;;;10.70;6.25;;;;;;;;;;5044258;28;20052;-62
2022/09/30 13:29:59;;;;;;;8.80;6.90;;;;;;;;;;5051152;28;20082;-63
2022/09/30 13:32:36;;;;;;;7.53;6.13;;;;;;;;;;5051496;28;20045;-64
2022/09/30 13:35:22;;;;;;;6.68;6.03;;;;;;;;;;5051182;28;20100;-62
2022/09/30 13:38:08;;;;;;;9.02;5.78;;;;;;;;;;5050755;28;20049;-61
2022/09/30 13:40:35;;;;;;;7.50;6.80;;;;;;;;;;5050962;28;20048;-64
2022/09/30 13:43:03;;;;;;;7.00;6.30;;;;;;;;;;5051168;28;20060;-64
2022/09/30 13:45:32;;;;;;;8.50;6.40;;;;;;;;;;5051322;28;20601;-65
2022/09/30 13:48:11;;;;;;;7.00;5.90;;;;;;;;;;5051384;28;20044;-65
2022/09/30 13:50:41;;;;;;;7.03;5.63;;;;;;;;;;5056331;28;20029;-65
2022/09/30 13:53:12;;;;;;;7.90;6.28;;;;;;;;;;5052538;28;20069;-66
2022/09/30 13:55:41;;;;;;;5.97;5.40;;;;;;;;;;5051384;28;20491;-68
2022/09/30 13:58:16;;;;;;;5.90;5.30;;;;;;;;;;5032947;28;20095;-68
2022/09/30 14:00:53;;;;;;;6.22;5.57;;;;;;;;;;5032867;28;20052;-67
2022/09/30 14:03:37;;;;;;;5.72;4.57;;;;;;;;;;5050882;28;20087;-65
2022/09/30 14:06:22;;;;;;;8.02;5.60;;;;;;;;;;5050844;28;20044;-66
2022/09/30 14:08:51;;;;;;;6.40;5.28;;;;;;;;;;5055970;28;20079;-67
2022/09/30 14:11:26;;;;;;;8.82;5.68;;;;;;;;;;5032887;28;20041;-65
2022/09/30 14:14:06;;;;;;;7.05;5.15;;;;;;;;;;5012726;28;20053;-64
2022/09/30 14:16:32;;;;;;;6.15;5.32;;;;;;;;;;5023515;28;20041;-64
2022/09/30 14:19:17;;;;;;;5.68;5.18;;;;;;;;;;5030813;28;20041;-64
2022/09/30 14:21:51;;;;;;;7.43;5.45;;;;;;;;;;5011761;28;20120;-65
2022/09/30 14:24:24;;;;;;;6.05;5.13;;;;;;;;;;5030667;28;20472;-70
2022/09/30 14:26:53;;;;;;;5.93;4.88;;;;;;;;;;5012725;28;20048;-71
2022/09/30 14:29:22;;;;;;;6.00;5.00;;;;;;;;;;5012471;28;20067;-67
2022/09/30 14:31:48;;;;;;;5.18;4.57;;;;;;;;;;5012356;28;20084;-67
2022/09/30 14:34:15;;;;;;;5.65;4.65;;;;;;;;;;5029922;28;20409;-66
2022/09/30 14:36:42;;;;;;;6.97;4.60;;;;;;;;;;5012222;28;20055;-65
2022/09/30 14:39:16;;;;;;;5.80;5.10;;;;;;;;;;5030065;28;20052;-65
2022/09/30 14:41:56;;;;;;;8.40;5.55;;;;;;;;;;5013035;28;20570;-69
2022/09/30 14:44:23;;;;;;;5.65;4.93;;;;;;;;;;5012436;28;20435;-66
2022/09/30 14:46:50;;;;;;;5.90;4.78;;;;;;;;;;5030524;28;20052;-66
2022/09/30 14:49:18;;;;;;;5.72;5.13;;;;;;;;;;4996696;28;20121;-65
2022/09/30 14:51:47;;;;;;;6.47;4.68;;;;;;;;;;5030599;28;20041;-66
2022/09/30 14:54:16;;;;;;;8.20;5.38;;;;;;;;;;5013057;28;20083;-66
2022/09/30 14:56:42;;;;;;;5.47;4.97;;;;;;;;;;5030841;28;20045;-66
2022/09/30 14:59:31;;;;;;;7.30;5.13;;;;;;;;;;5030145;28;20092;-66
2022/09/30 15:02:12;;;;;;;8.35;5.28;;;;;;;;;;5007504;28;20061;-66